createdAt,value
2022-12-23T00:01:05.869Z,110.78
2022-12-23T00:03:34.357Z,111.28
2022-12-23T00:06:07.845Z,165.68
2022-12-23T00:08:36.305Z,139.93
2022-12-23T00:11:06.428Z,113.45
2022-12-23T00:13:52.857Z,72.45
2022-12-23T00:16:20.574Z,231.48
2022-12-23T00:18:48.449Z,135.23
2022-12-23T00:21:17.776Z,181.93
2022-12-23T00:23:47.908Z,152.82
2022-12-23T00:26:25.374Z,172.35
2022-12-23T00:28:55.829Z,161.38
2022-12-23T00:31:23.892Z,239.63
2022-12-23T00:33:53.502Z,215.13
2022-12-23T00:36:23.438Z,221.38
2022-12-23T00:39:10.265Z,184.27
2022-12-23T00:41:57.200Z,177.98
2022-12-23T00:44:25.154Z,173.82
2022-12-23T00:46:52.858Z,248.90
2022-12-23T00:49:40.279Z,317.10
2022-12-23T00:52:10.574Z,218.15
2022-12-23T00:54:38.602Z,208.55
2022-12-23T00:59:34.336Z,234.00
2022-12-23T01:02:21.054Z,293.98
2022-12-23T01:05:07.720Z,227.55
2022-12-23T01:07:36.048Z,219.00
2022-12-23T01:10:04.027Z,248.13
2022-12-23T01:12:31.765Z,181.15
2022-12-23T01:14:59.581Z,265.65
2022-12-23T01:17:27.285Z,281.08
2022-12-23T01:19:55.132Z,317.90
2022-12-23T01:22:22.928Z,367.55
2022-12-23T01:24:50.693Z,418.08
2022-12-23T01:27:18.610Z,374.85
2022-12-23T01:29:46.908Z,276.63
2022-12-23T01:32:17.176Z,307.33
2022-12-23T01:34:44.972Z,277.92
2022-12-23T01:37:12.561Z,185.77
2022-12-23T01:39:40.162Z,375.40
2022-12-23T01:42:34.721Z,486.20
2022-12-23T01:45:24.791Z,467.38
2022-12-23T01:48:01.073Z,261.33
2022-12-23T01:50:38.429Z,202.10
2022-12-23T01:53:24.265Z,225.82
2022-12-23T01:56:07.972Z,351.52
2022-12-23T01:58:48.759Z,236.10
2022-12-23T02:01:35.581Z,167.82
2022-12-23T02:04:06.769Z,152.93
2022-12-23T02:06:56.602Z,143.55
2022-12-23T02:09:27.591Z,152.60
2022-12-23T02:11:57.955Z,151.10
2022-12-23T02:15:02.314Z,151.45
2022-12-23T02:17:34.315Z,167.77
2022-12-23T02:20:36.048Z,158.35
2022-12-23T02:23:15.770Z,144.80
2022-12-23T02:26:06.851Z,208.45
2022-12-23T02:28:55.579Z,188.98
2022-12-23T02:31:48.196Z,157.27
2022-12-23T02:34:18.745Z,154.90
2022-12-23T02:37:20.333Z,201.75
2022-12-23T02:40:17.158Z,175.23
2022-12-23T02:42:59.098Z,245.13
2022-12-23T02:45:35.857Z,167.95
2022-12-23T02:48:29.285Z,146.90
2022-12-23T02:50:58.419Z,158.73
2022-12-23T02:53:33.978Z,139.05
2022-12-23T02:56:03.702Z,149.15
2022-12-23T02:58:56.875Z,135.65
2022-12-23T03:01:29.047Z,126.60
2022-12-23T03:03:57.008Z,128.52
2022-12-23T03:06:33.088Z,116.93
2022-12-23T03:09:01.019Z,121.38
2022-12-23T03:11:49.865Z,123.50
2022-12-23T03:14:35.850Z,108.50
2022-12-23T03:17:21.515Z,111.55
2022-12-23T03:20:15.723Z,110.97
2022-12-23T03:22:58.352Z,113.35
2022-12-23T03:25:35.955Z,109.85
2022-12-23T03:28:11.416Z,118.68
2022-12-23T03:30:43.311Z,113.00
2022-12-23T03:33:27.478Z,128.88
2022-12-23T03:36:11.383Z,118.30
2022-12-23T03:38:43.269Z,103.22
2022-12-23T03:41:16.841Z,104.35
2022-12-23T03:43:51.206Z,109.80
2022-12-23T03:46:31.074Z,100.05
2022-12-23T03:49:09.201Z,114.22
2022-12-23T03:51:51.047Z,95.67
2022-12-23T03:54:24.397Z,86.53
2022-12-23T03:56:59.123Z,93.85
2022-12-23T03:59:31.561Z,116.68
2022-12-23T04:02:16.243Z,91.68
2022-12-23T04:05:09.331Z,98.07
2022-12-23T04:07:47.713Z,121.50
2022-12-23T04:10:16.323Z,112.65
2022-12-23T04:12:44.591Z,110.18
2022-12-23T04:15:13.253Z,103.90
2022-12-23T04:17:47.855Z,117.80
2022-12-23T04:20:15.760Z,128.43
2022-12-23T04:22:46.257Z,103.95
2022-12-23T04:25:15.667Z,105.28
2022-12-23T04:27:43.840Z,114.50
2022-12-23T04:32:41.482Z,98.13
2022-12-23T04:35:10.456Z,113.88
2022-12-23T04:37:38.871Z,114.25
2022-12-23T04:40:07.448Z,118.80
2022-12-23T04:42:35.681Z,129.57
2022-12-23T04:47:31.909Z,129.98
2022-12-23T04:49:59.817Z,124.53
2022-12-23T04:52:27.785Z,123.82
2022-12-23T04:54:55.465Z,138.73
2022-12-23T04:57:23.396Z,131.60
2022-12-23T04:59:50.927Z,126.47
2022-12-23T05:02:18.691Z,117.13
2022-12-23T05:04:46.505Z,123.40
2022-12-23T05:07:14.279Z,119.00
2022-12-23T05:09:41.908Z,113.38
2022-12-23T05:12:09.681Z,121.22
2022-12-23T05:14:37.257Z,113.88
2022-12-23T05:17:07.613Z,121.88
2022-12-23T05:19:36.102Z,119.03
2022-12-23T05:22:03.908Z,122.38
2022-12-23T05:24:31.738Z,111.13
2022-12-23T05:27:00.454Z,108.70
2022-12-23T05:29:28.645Z,107.07
2022-12-23T05:31:56.366Z,113.70
2022-12-23T05:34:24.590Z,103.95
2022-12-23T05:36:52.400Z,95.47
2022-12-23T05:39:20.031Z,99.20
2022-12-23T05:41:47.893Z,92.90
2022-12-23T05:44:15.645Z,96.55
2022-12-23T05:46:43.370Z,79.68
2022-12-23T05:49:11.781Z,87.05
2022-12-23T05:54:06.732Z,80.30
2022-12-23T05:56:34.484Z,85.78
2022-12-23T05:59:02.289Z,81.75
2022-12-23T06:01:29.890Z,80.95
2022-12-23T06:03:57.721Z,69.50
2022-12-23T06:08:41.026Z,71.53
2022-12-23T06:11:08.728Z,74.90
2022-12-23T06:13:36.525Z,70.00
2022-12-23T06:16:04.628Z,72.43
2022-12-23T06:18:32.366Z,81.22
2022-12-23T06:21:00.032Z,88.63
2022-12-23T06:23:28.229Z,83.32
2022-12-23T06:28:30.147Z,91.30
2022-12-23T06:30:58.468Z,87.45
2022-12-23T06:33:26.270Z,88.38
2022-12-23T06:35:54.101Z,74.50
2022-12-23T06:38:22.060Z,87.30
2022-12-23T06:40:49.729Z,85.43
2022-12-23T06:43:17.822Z,92.13
2022-12-23T06:45:49.867Z,73.43
2022-12-23T06:48:17.864Z,59.88
2022-12-23T06:50:45.813Z,77.85
2022-12-23T06:53:13.666Z,77.75
2022-12-23T06:55:41.282Z,86.82
2022-12-23T06:58:08.914Z,56.63
2022-12-23T07:00:36.903Z,71.28
2022-12-23T07:03:04.717Z,74.25
2022-12-23T07:05:37.283Z,69.65
2022-12-23T07:08:06.728Z,59.53
2022-12-23T07:10:34.880Z,63.38
2022-12-23T07:17:57.974Z,69.47
2022-12-23T07:20:25.749Z,56.88
2022-12-23T07:23:00.300Z,66.65
2022-12-23T07:25:28.409Z,66.88
2022-12-23T07:27:56.801Z,66.85
2022-12-23T07:30:24.620Z,58.25
2022-12-23T07:32:52.777Z,55.53
2022-12-23T07:37:55.812Z,61.33
2022-12-23T07:40:24.450Z,61.70
2022-12-23T07:42:58.021Z,63.30
2022-12-23T07:45:27.365Z,44.30
2022-12-23T07:47:56.995Z,64.50
2022-12-23T07:50:25.322Z,58.13
2022-12-23T07:52:53.470Z,54.60
2022-12-23T07:55:21.385Z,64.60
2022-12-23T07:57:50.148Z,69.78
2022-12-23T08:00:18.963Z,61.78
2022-12-23T08:02:47.861Z,61.28
2022-12-23T08:05:16.437Z,53.42
2022-12-23T08:07:45.435Z,57.78
2022-12-23T08:10:13.717Z,61.08
2022-12-23T08:15:09.467Z,42.70
2022-12-23T08:17:37.148Z,59.90
2022-12-23T08:20:05.134Z,64.20
2022-12-23T08:25:00.514Z,68.65
2022-12-23T08:27:28.283Z,57.75
2022-12-23T08:29:56.062Z,68.82
2022-12-23T08:32:27.652Z,59.50
2022-12-23T08:34:58.600Z,70.18
2022-12-23T08:37:26.432Z,64.45
2022-12-23T08:39:54.219Z,75.25
2022-12-23T08:42:22.071Z,65.03
2022-12-23T08:44:49.685Z,72.75
2022-12-23T08:47:17.379Z,64.57
2022-12-23T08:49:45.993Z,60.67
2022-12-23T08:52:13.713Z,39.88
2022-12-23T08:54:41.460Z,57.67
2022-12-23T08:57:09.169Z,56.75
2022-12-23T08:59:36.811Z,59.30
2022-12-23T09:02:04.976Z,41.83
2022-12-23T09:07:00.134Z,45.15
2022-12-23T09:09:28.125Z,46.05
2022-12-23T09:11:55.717Z,51.42
2022-12-23T09:14:23.704Z,49.22
2022-12-23T09:16:52.687Z,46.70
2022-12-23T09:19:20.490Z,48.42
2022-12-23T09:21:48.408Z,46.53
2022-12-23T09:24:16.186Z,46.53
2022-12-23T09:26:44.067Z,48.95
2022-12-23T09:29:11.658Z,39.97
2022-12-23T09:31:39.778Z,43.70
2022-12-23T09:34:07.513Z,46.08
2022-12-23T09:36:35.413Z,45.40
2022-12-23T09:39:03.380Z,36.92
2022-12-23T09:41:55.008Z,41.47
2022-12-23T09:44:29.158Z,42.20
2022-12-23T09:47:08.122Z,43.67
2022-12-23T09:49:44.327Z,25.08
2022-12-23T09:52:15.015Z,33.38
2022-12-23T09:54:48.616Z,36.58
2022-12-23T09:57:16.149Z,32.05
2022-12-23T09:59:58.829Z,31.02
2022-12-23T10:02:48.364Z,24.58
2022-12-23T10:05:56.253Z,31.10
2022-12-23T10:08:44.599Z,30.13
2022-12-23T10:11:17.788Z,32.10
2022-12-23T10:13:53.014Z,28.75
2022-12-23T10:16:25.767Z,32.70
2022-12-23T10:19:04.897Z,25.33
2022-12-23T10:21:50.427Z,23.48
2022-12-23T10:24:21.038Z,25.05
2022-12-23T10:27:02.928Z,23.77
2022-12-23T10:29:34.726Z,20.85
2022-12-23T10:32:08.370Z,22.40
2022-12-23T10:35:12.562Z,22.80
2022-12-23T10:37:46.617Z,23.63
2022-12-23T10:40:14.788Z,24.63
2022-12-23T10:45:31.961Z,19.35
2022-12-23T10:48:34.085Z,28.52
2022-12-23T10:51:16.654Z,21.90
2022-12-23T10:53:55.234Z,21.23
2022-12-23T10:56:23.340Z,16.50
2022-12-23T11:01:26.702Z,19.77
2022-12-23T11:04:14.928Z,16.15
2022-12-23T11:07:18.208Z,16.17
2022-12-23T11:09:48.273Z,19.25
2022-12-23T11:12:16.050Z,17.17
2022-12-23T11:14:57.108Z,16.40
2022-12-23T11:17:33.484Z,18.05
2022-12-23T11:20:18.156Z,13.93
2022-12-23T11:22:52.169Z,10.40
2022-12-23T11:25:31.215Z,12.48
2022-12-23T11:28:15.400Z,12.05
2022-12-23T11:30:55.657Z,11.80
2022-12-23T11:33:30.398Z,9.93
2022-12-23T11:36:13.411Z,13.68
2022-12-23T11:39:10.941Z,11.20
2022-12-23T11:41:39.898Z,9.13
2022-12-23T11:44:16.660Z,9.73
2022-12-23T11:46:44.451Z,9.23
2022-12-23T11:49:25.434Z,9.20
2022-12-23T11:52:05.157Z,11.75
2022-12-23T11:54:34.363Z,8.82
2022-12-23T11:57:05.836Z,8.93
2022-12-23T11:59:40.690Z,27.73
2022-12-23T12:02:39.281Z,10.50
2022-12-23T12:05:20.101Z,22.70
2022-12-23T12:07:49.394Z,6.75
2022-12-23T12:10:26.302Z,9.02
2022-12-23T12:13:01.752Z,9.23
2022-12-23T12:16:01.902Z,114.63
2022-12-23T12:18:30.050Z,8.40
2022-12-23T12:21:04.285Z,7.82
2022-12-23T12:24:18.733Z,26.48
2022-12-23T12:26:51.600Z,11.65
2022-12-23T12:29:36.135Z,12.27
2022-12-23T12:32:07.689Z,9.25
2022-12-23T12:34:51.739Z,9.15
2022-12-23T12:37:35.373Z,8.02
2022-12-23T12:40:09.410Z,10.55
2022-12-23T12:42:47.311Z,23.10
2022-12-23T12:45:22.202Z,12.98
2022-12-23T12:48:16.282Z,9.95
2022-12-23T12:50:59.343Z,63.85
2022-12-23T12:53:29.904Z,11.57
2022-12-23T12:56:21.029Z,9.43
2022-12-23T12:58:48.675Z,8.55
2022-12-23T13:01:29.881Z,14.25
2022-12-23T13:04:31.411Z,9.82
2022-12-23T13:07:11.292Z,9.73
2022-12-23T13:09:50.895Z,9.60
2022-12-23T13:12:39.833Z,8.80
2022-12-23T13:15:26.491Z,10.55
2022-12-23T13:18:25.065Z,11.32
2022-12-23T13:21:26.578Z,7.03
2022-12-23T13:24:20.655Z,10.02
2022-12-23T13:27:11.182Z,9.43
2022-12-23T13:29:56.186Z,9.48
2022-12-23T13:33:02.190Z,8.77
2022-12-23T13:35:32.233Z,9.63
2022-12-23T13:38:09.354Z,13.60
2022-12-23T13:40:50.280Z,9.45
2022-12-23T13:43:23.932Z,15.57
2022-12-23T13:45:54.858Z,9.80
2022-12-23T13:48:22.872Z,11.10
2022-12-23T13:50:57.466Z,12.55
2022-12-23T13:53:45.234Z,13.30
2022-12-23T13:56:41.986Z,10.77
2022-12-23T13:59:14.801Z,15.27
2022-12-23T14:01:42.622Z,15.10
2022-12-23T14:05:14.745Z,13.02
2022-12-23T14:07:45.197Z,13.95
2022-12-23T14:10:22.729Z,11.32
2022-12-23T14:12:53.565Z,8.98
2022-12-23T14:15:30.225Z,10.13
2022-12-23T14:18:31.989Z,8.52
2022-12-23T14:21:36.374Z,9.18
2022-12-23T14:24:33.874Z,11.82
2022-12-23T14:27:45.855Z,8.65
2022-12-23T14:30:21.536Z,8.60
2022-12-23T14:32:52.737Z,10.60
2022-12-23T14:35:25.238Z,9.45
2022-12-23T14:38:15.240Z,8.55
2022-12-23T14:40:43.608Z,9.45
2022-12-23T14:46:01.779Z,9.43
2022-12-23T14:49:37.055Z,9.77
2022-12-23T14:51:52.396Z,9.38
2022-12-23T14:54:38.464Z,11.05
2022-12-23T14:57:18.143Z,12.52
2022-12-23T14:59:53.928Z,13.25
2022-12-23T15:02:38.260Z,12.60
2022-12-23T15:05:06.370Z,9.50
2022-12-23T15:07:37.780Z,9.95
2022-12-23T15:10:23.568Z,10.88
2022-12-23T15:12:56.819Z,15.37
2022-12-23T15:15:27.794Z,9.80
2022-12-23T15:18:07.043Z,135.23
2022-12-23T15:20:35.399Z,13.10
2022-12-23T15:23:10.344Z,12.63
2022-12-23T15:25:44.418Z,11.90
2022-12-23T15:28:39.335Z,13.10
2022-12-23T15:31:31.377Z,12.30
2022-12-23T15:34:04.708Z,15.10
2022-12-23T15:36:37.216Z,13.23
2022-12-23T15:39:17.216Z,10.73
2022-12-23T15:41:46.409Z,11.23
2022-12-23T15:44:26.256Z,15.50
2022-12-23T15:46:54.031Z,14.35
2022-12-23T15:49:22.024Z,16.05
2022-12-23T15:52:08.530Z,16.42
2022-12-23T15:54:44.876Z,15.02
2022-12-23T15:57:17.873Z,17.30
2022-12-23T15:59:46.054Z,19.42
2022-12-23T16:08:21.715Z,15.23
2022-12-23T16:11:15.048Z,20.40
2022-12-23T16:13:59.315Z,16.75
2022-12-23T16:16:38.094Z,11.07
2022-12-23T16:19:06.368Z,12.52
2022-12-23T16:24:08.814Z,15.32
2022-12-23T16:26:42.413Z,10.73
2022-12-23T16:29:11.463Z,14.15
2022-12-23T16:31:44.250Z,11.35
2022-12-23T16:34:16.034Z,11.02
2022-12-23T16:36:43.644Z,11.13
2022-12-23T16:39:22.782Z,11.40
2022-12-23T16:41:50.975Z,12.75
2022-12-23T16:44:18.614Z,12.45
2022-12-23T16:46:49.803Z,12.70
2022-12-23T16:49:24.434Z,11.38
2022-12-23T16:51:55.878Z,13.75
2022-12-23T16:54:23.636Z,15.27
2022-12-23T16:56:51.500Z,16.70
2022-12-23T16:59:20.050Z,17.73
2022-12-23T17:01:50.163Z,17.63
2022-12-23T17:04:17.893Z,17.83
2022-12-23T17:06:47.221Z,22.08
2022-12-23T17:09:15.080Z,17.48
2022-12-23T17:11:49.029Z,20.83
2022-12-23T17:14:22.164Z,18.58
2022-12-23T17:16:50.864Z,24.92
2022-12-23T17:19:27.302Z,20.15
2022-12-23T17:22:01.308Z,21.17
2022-12-23T17:24:29.029Z,13.60
2022-12-23T17:26:57.717Z,13.90
2022-12-23T17:29:34.815Z,11.00
2022-12-23T17:32:02.735Z,11.93
2022-12-23T17:34:30.974Z,14.20
2022-12-23T17:37:01.679Z,22.23
2022-12-23T17:39:29.436Z,60.88
2022-12-23T17:41:58.785Z,10.27
2022-12-23T17:44:26.607Z,23.00
2022-12-23T17:46:54.590Z,12.38
2022-12-23T17:51:50.939Z,13.35
2022-12-23T17:54:24.972Z,69.82
2022-12-23T17:56:53.692Z,93.85
2022-12-23T17:59:21.838Z,13.63
2022-12-23T18:01:49.832Z,15.73
2022-12-23T18:06:45.308Z,11.15
2022-12-23T18:09:13.158Z,29.73
2022-12-23T18:11:44.448Z,14.68
2022-12-23T18:14:27.824Z,14.50
2022-12-23T18:16:55.909Z,22.10
2022-12-23T18:19:24.347Z,16.02
2022-12-23T18:21:52.680Z,14.50
2022-12-23T18:24:21.177Z,17.60
2022-12-23T18:26:49.259Z,14.02
2022-12-23T18:29:21.290Z,12.35
2022-12-23T18:31:51.856Z,13.63
2022-12-23T18:34:21.625Z,17.45
2022-12-23T18:36:53.539Z,13.50
2022-12-23T18:39:24.073Z,21.88
2022-12-23T18:41:52.429Z,18.38
2022-12-23T18:46:49.332Z,14.10
2022-12-23T18:49:17.559Z,12.50
2022-12-23T18:51:46.107Z,13.82
2022-12-23T18:54:15.540Z,20.60
2022-12-23T18:56:43.779Z,16.58
2022-12-23T18:59:27.357Z,16.60
2022-12-23T19:01:58.429Z,19.92
2022-12-23T19:04:28.347Z,7.10
2022-12-23T19:07:06.793Z,23.77
2022-12-23T19:09:37.095Z,34.58
2022-12-23T19:12:08.600Z,24.27
2022-12-23T19:19:50.256Z,28.45
2022-12-23T19:22:17.896Z,30.83
2022-12-23T19:25:03.909Z,29.17
2022-12-23T19:27:33.193Z,34.53
2022-12-23T19:30:01.672Z,29.67
2022-12-23T19:32:29.751Z,29.58
2022-12-23T19:35:05.785Z,24.95
2022-12-23T19:37:38.469Z,38.90
2022-12-23T19:40:07.698Z,32.30
2022-12-23T19:46:53.074Z,31.23
2022-12-23T19:49:21.140Z,23.13
2022-12-23T19:51:51.505Z,32.72
2022-12-23T19:54:44.450Z,26.42
2022-12-23T19:57:56.574Z,26.60
2022-12-23T20:08:53.728Z,31.00
2022-12-23T20:11:27.315Z,23.95
2022-12-23T20:13:57.226Z,23.00
2022-12-23T20:16:29.691Z,16.98
2022-12-23T20:18:58.117Z,20.73
2022-12-23T20:21:26.381Z,24.20
2022-12-23T20:26:23.918Z,25.30
2022-12-23T20:28:58.486Z,29.48
2022-12-23T20:31:30.264Z,24.52
2022-12-23T20:34:01.916Z,24.45
2022-12-23T20:36:33.183Z,24.75
2022-12-23T20:39:06.326Z,26.95
2022-12-23T20:41:43.858Z,31.15
2022-12-23T20:47:00.849Z,26.85
2022-12-23T20:49:28.555Z,24.77
2022-12-23T20:51:56.528Z,25.17
2022-12-23T20:54:31.731Z,31.85
2022-12-23T20:57:02.463Z,30.73
2022-12-23T20:59:30.349Z,38.50
2022-12-23T21:01:59.697Z,26.38
2022-12-23T21:04:27.562Z,30.80
2022-12-23T21:06:55.469Z,31.55
2022-12-23T21:09:23.456Z,36.83
2022-12-23T21:11:51.229Z,23.42
2022-12-23T21:14:18.926Z,25.67
2022-12-23T21:16:48.003Z,28.63
2022-12-23T21:19:22.035Z,24.63
2022-12-23T21:21:50.940Z,16.95
2022-12-23T21:24:19.664Z,25.95
2022-12-23T21:26:55.971Z,25.88
2022-12-23T21:29:25.484Z,19.10
2022-12-23T21:31:55.405Z,22.40
2022-12-23T21:34:26.183Z,33.45
2022-12-23T21:37:32.125Z,19.92
2022-12-23T21:40:00.427Z,26.27
2022-12-23T21:42:27.914Z,21.38
2022-12-23T21:47:55.200Z,22.57
2022-12-23T21:51:15.896Z,24.13
2022-12-23T21:53:45.564Z,32.83
2022-12-23T21:56:24.676Z,21.23
2022-12-23T21:59:00.529Z,22.45
2022-12-23T22:01:29.334Z,24.70
2022-12-23T22:03:57.954Z,20.10
2022-12-23T22:06:29.110Z,24.25
2022-12-23T22:08:57.701Z,29.58
2022-12-23T22:14:37.224Z,21.45
2022-12-23T22:19:32.487Z,32.65
2022-12-23T22:22:00.100Z,44.92
2022-12-23T22:24:27.667Z,27.52
2022-12-23T22:26:55.295Z,27.35
2022-12-23T22:29:23.089Z,21.13
2022-12-23T22:31:53.329Z,38.75
2022-12-23T22:34:23.219Z,24.05
2022-12-23T22:36:51.006Z,22.02
2022-12-23T22:39:21.612Z,27.85
2022-12-23T22:41:51.028Z,31.45
2022-12-23T22:44:19.889Z,27.58
2022-12-23T22:46:48.413Z,26.77
2022-12-23T22:49:17.118Z,26.77
2022-12-23T22:51:45.154Z,34.10
2022-12-23T22:54:13.008Z,28.00
2022-12-23T22:56:40.596Z,22.48
2022-12-23T22:59:24.942Z,23.50
2022-12-23T23:01:53.204Z,34.05
2022-12-23T23:04:21.139Z,28.08
2022-12-23T23:06:49.267Z,30.63
2022-12-23T23:11:45.782Z,33.70
2022-12-23T23:14:13.875Z,25.13
2022-12-23T23:16:42.529Z,25.67
2022-12-23T23:19:10.949Z,46.78
2022-12-23T23:21:38.787Z,31.00
2022-12-23T23:24:06.971Z,31.90
2022-12-23T23:26:34.748Z,22.55
2022-12-23T23:29:02.598Z,28.90
2022-12-23T23:31:45.544Z,22.55
2022-12-23T23:34:13.781Z,24.30
2022-12-23T23:36:44.283Z,27.17
2022-12-23T23:39:13.147Z,31.88
2022-12-23T23:41:41.263Z,31.58
2022-12-23T23:46:36.734Z,31.92
2022-12-23T23:49:05.111Z,19.63
2022-12-23T23:51:32.773Z,29.55
2022-12-23T23:54:00.488Z,30.88
2022-12-23T23:56:33.854Z,19.08
2022-12-23T23:59:05.752Z,18.67
